createdAt,value
2022-11-08T00:01:32.891Z,15.25
2022-11-08T00:04:02.439Z,15.36
2022-11-08T00:06:47.355Z,15.48
2022-11-08T00:09:32.072Z,15.07
2022-11-08T00:12:16.988Z,15.30
2022-11-08T00:14:46.717Z,15.25
2022-11-08T00:17:14.933Z,15.14
2022-11-08T00:19:43.948Z,15.11
2022-11-08T00:22:11.672Z,15.33
2022-11-08T00:24:39.173Z,15.05
2022-11-08T00:27:08.154Z,15.35
2022-11-08T00:29:35.896Z,15.25
2022-11-08T00:32:03.348Z,14.99
2022-11-08T00:34:30.823Z,14.96
2022-11-08T00:36:59.648Z,14.91
2022-11-08T00:39:27.136Z,14.85
2022-11-08T00:41:54.608Z,15.07
2022-11-08T00:44:22.156Z,15.11
2022-11-08T00:46:49.618Z,14.74
2022-11-08T00:49:17.128Z,14.56
2022-11-08T00:51:44.611Z,14.69
2022-11-08T00:54:14.080Z,14.44
2022-11-08T00:56:41.618Z,14.52
2022-11-08T00:59:09.114Z,14.70
2022-11-08T01:01:36.675Z,14.76
2022-11-08T01:04:04.250Z,14.85
2022-11-08T01:06:32.235Z,14.73
2022-11-08T01:09:00.040Z,14.41
2022-11-08T01:11:28.886Z,14.49
2022-11-08T01:13:57.323Z,14.34
2022-11-08T01:16:25.631Z,14.25
2022-11-08T01:18:53.718Z,14.13
2022-11-08T01:21:21.255Z,14.37
2022-11-08T01:23:48.942Z,14.04
2022-11-08T01:26:16.945Z,14.39
2022-11-08T01:28:45.937Z,14.54
2022-11-08T01:31:14.152Z,14.39
2022-11-08T01:33:44.613Z,14.96
2022-11-08T01:36:15.209Z,15.26
2022-11-08T01:38:42.664Z,14.42
2022-11-08T01:41:10.995Z,14.35
2022-11-08T01:43:39.405Z,15.13
2022-11-08T01:46:30.895Z,15.25
2022-11-08T01:49:00.491Z,15.00
2022-11-08T01:51:28.529Z,15.67
2022-11-08T01:53:55.991Z,15.53
2022-11-08T01:56:23.439Z,15.11
2022-11-08T01:58:50.883Z,14.16
2022-11-08T02:01:18.388Z,13.95
2022-11-08T02:03:46.975Z,13.72
2022-11-08T02:06:15.811Z,13.64
2022-11-08T02:08:43.745Z,13.75
2022-11-08T02:11:12.379Z,13.78
2022-11-08T02:13:39.860Z,13.85
2022-11-08T02:16:07.936Z,14.28
2022-11-08T02:18:35.478Z,14.32
2022-11-08T02:21:04.995Z,14.10
2022-11-08T02:23:42.474Z,13.95
2022-11-08T02:26:09.920Z,13.70
2022-11-08T02:28:39.301Z,13.60
2022-11-08T02:31:08.788Z,13.75
2022-11-08T02:33:36.464Z,13.74
2022-11-08T02:36:04.124Z,13.70
2022-11-08T02:38:31.602Z,13.51
2022-11-08T02:41:00.440Z,13.71
2022-11-08T02:43:27.874Z,13.59
2022-11-08T02:45:55.334Z,13.61
2022-11-08T02:48:22.817Z,14.21
2022-11-08T02:50:50.336Z,14.13
2022-11-08T02:53:17.984Z,13.43
2022-11-08T02:55:45.597Z,13.43
2022-11-08T02:58:14.509Z,13.61
2022-11-08T03:00:42.174Z,13.63
2022-11-08T03:03:09.728Z,13.32
2022-11-08T03:05:37.260Z,13.51
2022-11-08T03:08:04.876Z,13.58
2022-11-08T03:10:32.364Z,13.43
2022-11-08T03:13:00.057Z,13.52
2022-11-08T03:15:29.099Z,13.40
2022-11-08T03:17:56.772Z,13.59
2022-11-08T03:20:28.280Z,13.51
2022-11-08T03:22:59.507Z,13.66
2022-11-08T03:25:26.976Z,13.36
2022-11-08T03:27:54.426Z,13.71
2022-11-08T03:30:22.038Z,13.59
2022-11-08T03:32:51.169Z,13.44
2022-11-08T03:35:18.625Z,13.91
2022-11-08T03:37:50.623Z,13.39
2022-11-08T03:40:18.308Z,13.96
2022-11-08T03:42:45.789Z,13.40
2022-11-08T03:45:13.494Z,13.41
2022-11-08T03:47:41.201Z,13.45
2022-11-08T03:50:10.776Z,13.25
2022-11-08T03:52:41.063Z,13.21
2022-11-08T03:55:09.117Z,13.09
2022-11-08T03:57:36.616Z,13.15
2022-11-08T04:00:05.088Z,13.01
2022-11-08T04:02:32.639Z,13.07
2022-11-08T04:05:00.186Z,13.00
2022-11-08T04:07:29.172Z,13.15
2022-11-08T04:09:56.652Z,12.85
2022-11-08T04:12:41.364Z,12.70
2022-11-08T04:15:16.795Z,12.98
2022-11-08T04:18:02.134Z,12.82
2022-11-08T04:20:46.972Z,12.91
2022-11-08T04:23:15.943Z,12.95
2022-11-08T04:25:43.404Z,12.92
2022-11-08T04:28:10.913Z,12.80
2022-11-08T04:30:38.655Z,12.99
2022-11-08T04:33:07.035Z,12.83
2022-11-08T04:35:34.722Z,12.82
2022-11-08T04:38:02.476Z,12.85
2022-11-08T04:40:32.080Z,12.86
2022-11-08T04:42:59.581Z,12.91
2022-11-08T04:45:27.043Z,12.81
2022-11-08T04:47:54.486Z,12.84
2022-11-08T04:50:21.997Z,12.80
2022-11-08T04:52:52.047Z,12.75
2022-11-08T04:55:19.619Z,12.67
2022-11-08T04:57:48.744Z,12.51
2022-11-08T05:00:16.801Z,12.62
2022-11-08T05:02:44.341Z,12.65
2022-11-08T05:05:11.872Z,12.53
2022-11-08T05:07:39.384Z,12.68
2022-11-08T05:10:07.902Z,12.80
2022-11-08T05:12:35.373Z,12.69
2022-11-08T05:15:04.244Z,12.62
2022-11-08T05:17:31.714Z,13.35
2022-11-08T05:20:16.536Z,13.04
2022-11-08T05:23:01.465Z,12.69
2022-11-08T05:25:28.953Z,12.78
2022-11-08T05:27:57.650Z,12.82
2022-11-08T05:30:26.531Z,12.82
2022-11-08T05:32:54.179Z,12.58
2022-11-08T05:35:22.989Z,13.22
2022-11-08T05:37:50.663Z,13.55
2022-11-08T05:40:18.501Z,13.22
2022-11-08T05:42:46.231Z,12.59
2022-11-08T05:45:13.913Z,12.59
2022-11-08T05:47:46.630Z,12.63
2022-11-08T05:50:19.133Z,12.72
2022-11-08T05:52:47.152Z,12.63
2022-11-08T05:55:14.815Z,12.50
2022-11-08T05:57:43.569Z,12.56
2022-11-08T06:00:12.408Z,13.41
2022-11-08T06:02:40.269Z,13.48
2022-11-08T06:05:10.647Z,13.52
2022-11-08T06:07:38.533Z,13.40
2022-11-08T06:10:07.067Z,13.40
2022-11-08T06:12:34.940Z,13.24
2022-11-08T06:15:02.639Z,13.70
2022-11-08T06:17:30.532Z,13.42
2022-11-08T06:19:58.487Z,13.56
2022-11-08T06:22:27.519Z,13.58
2022-11-08T06:24:55.352Z,13.38
2022-11-08T06:27:22.987Z,13.42
2022-11-08T06:29:50.651Z,13.43
2022-11-08T06:32:18.293Z,13.01
2022-11-08T06:34:47.101Z,13.42
2022-11-08T06:37:14.785Z,13.36
2022-11-08T06:39:44.747Z,12.96
2022-11-08T06:42:12.395Z,13.37
2022-11-08T06:44:40.054Z,13.26
2022-11-08T06:47:07.712Z,13.33
2022-11-08T06:49:37.110Z,13.24
2022-11-08T06:52:05.320Z,13.44
2022-11-08T06:54:33.005Z,13.32
2022-11-08T06:57:02.253Z,12.94
2022-11-08T06:59:30.123Z,13.31
2022-11-08T07:01:57.904Z,13.27
2022-11-08T07:04:25.701Z,13.39
2022-11-08T07:06:53.363Z,13.35
2022-11-08T07:09:20.992Z,13.67
2022-11-08T07:11:48.642Z,13.48
2022-11-08T07:14:17.613Z,13.55
2022-11-08T07:16:45.263Z,13.55
2022-11-08T07:19:12.907Z,13.68
2022-11-08T07:21:40.662Z,13.61
2022-11-08T07:24:08.384Z,13.67
2022-11-08T07:26:36.058Z,13.81
2022-11-08T07:29:03.734Z,13.61
2022-11-08T07:31:32.722Z,13.66
2022-11-08T07:34:00.410Z,14.07
2022-11-08T07:36:28.078Z,14.10
2022-11-08T07:38:55.696Z,14.06
2022-11-08T07:41:23.307Z,14.34
2022-11-08T07:43:50.977Z,14.19
2022-11-08T07:46:18.967Z,13.63
2022-11-08T07:48:48.115Z,13.51
2022-11-08T07:51:15.736Z,13.36
2022-11-08T07:53:43.813Z,13.65
2022-11-08T07:56:11.782Z,13.64
2022-11-08T07:58:39.478Z,13.45
2022-11-08T08:01:08.044Z,13.49
2022-11-08T08:03:36.317Z,13.48
2022-11-08T08:06:05.472Z,13.31
2022-11-08T08:08:33.150Z,13.72
2022-11-08T08:11:01.494Z,13.56
2022-11-08T08:13:29.856Z,13.68
2022-11-08T08:15:59.472Z,13.53
2022-11-08T08:18:27.322Z,13.83
2022-11-08T08:20:54.980Z,13.76
2022-11-08T08:23:23.968Z,13.91
2022-11-08T08:25:52.825Z,14.13
2022-11-08T08:28:20.581Z,14.18
2022-11-08T08:30:48.394Z,14.20
2022-11-08T08:33:33.193Z,14.07
2022-11-08T08:36:01.956Z,14.26
2022-11-08T08:38:31.764Z,14.18
2022-11-08T08:41:00.094Z,14.61
2022-11-08T08:43:28.526Z,14.65
2022-11-08T08:45:56.394Z,14.68
2022-11-08T08:48:24.007Z,14.79
2022-11-08T08:50:51.668Z,15.03
2022-11-08T08:53:19.689Z,15.06
2022-11-08T08:55:52.306Z,14.81
2022-11-08T08:58:20.371Z,14.57
2022-11-08T09:03:36.508Z,14.80
2022-11-08T09:06:04.689Z,15.00
2022-11-08T09:08:32.349Z,14.95
2022-11-08T09:11:02.121Z,15.38
2022-11-08T09:13:31.795Z,15.11
2022-11-08T09:16:01.392Z,15.36
2022-11-08T09:18:29.117Z,15.40
2022-11-08T09:20:57.948Z,15.51
2022-11-08T09:23:25.765Z,15.55
2022-11-08T09:25:57.667Z,15.66
2022-11-08T09:28:30.969Z,15.60
2022-11-08T09:31:01.408Z,15.96
2022-11-08T09:33:29.092Z,16.01
2022-11-08T09:35:56.761Z,16.25
2022-11-08T09:38:24.397Z,15.95
2022-11-08T09:40:58.188Z,15.88
2022-11-08T09:43:38.299Z,16.15
2022-11-08T09:46:08.820Z,16.24
2022-11-08T09:48:38.535Z,16.05
2022-11-08T09:51:09.118Z,15.99
2022-11-08T09:53:46.208Z,16.24
2022-11-08T09:56:17.071Z,16.33
2022-11-08T09:58:49.652Z,16.26
2022-11-08T10:01:17.636Z,16.66
2022-11-08T10:03:50.456Z,16.56
2022-11-08T10:06:46.002Z,16.42
2022-11-08T10:09:23.821Z,16.46
2022-11-08T10:12:08.388Z,16.20
2022-11-08T10:14:54.381Z,16.13
2022-11-08T10:17:35.631Z,16.23
2022-11-08T10:20:11.702Z,16.42
2022-11-08T10:22:47.102Z,16.46
2022-11-08T10:25:20.860Z,16.69
2022-11-08T10:27:48.526Z,16.62
2022-11-08T10:30:21.468Z,17.07
2022-11-08T10:32:52.131Z,16.93
2022-11-08T10:35:23.352Z,16.86
2022-11-08T10:37:52.983Z,16.98
2022-11-08T10:40:27.823Z,16.96
2022-11-08T10:42:59.256Z,16.22
2022-11-08T10:45:28.264Z,16.61
2022-11-08T10:47:56.171Z,17.15
2022-11-08T10:50:33.202Z,16.63
2022-11-08T10:53:02.540Z,16.84
2022-11-08T10:55:33.473Z,16.65
2022-11-08T10:58:01.520Z,16.76
2022-11-08T11:00:32.836Z,16.42
2022-11-08T11:03:02.177Z,16.86
2022-11-08T11:05:33.664Z,17.50
2022-11-08T11:08:14.269Z,17.32
2022-11-08T11:10:43.931Z,17.48
2022-11-08T11:13:13.480Z,16.96
2022-11-08T11:15:47.439Z,16.99
2022-11-08T11:18:36.595Z,17.22
2022-11-08T11:21:08.563Z,17.06
2022-11-08T11:23:38.762Z,17.42
2022-11-08T11:26:07.252Z,17.14
2022-11-08T11:28:36.677Z,17.21
2022-11-08T11:31:16.826Z,17.21
2022-11-08T11:33:45.479Z,17.36
2022-11-08T11:36:15.357Z,17.32
2022-11-08T11:38:47.640Z,17.23
2022-11-08T11:41:18.222Z,16.84
2022-11-08T11:43:48.946Z,17.44
2022-11-08T11:46:22.549Z,17.07
2022-11-08T11:48:54.777Z,16.92
2022-11-08T11:51:23.522Z,16.94
2022-11-08T11:53:51.205Z,17.04
2022-11-08T11:56:34.546Z,17.10
2022-11-08T11:59:22.634Z,16.78
2022-11-08T12:02:00.393Z,16.91
2022-11-08T12:04:37.529Z,17.00
2022-11-08T12:07:10.142Z,16.86
2022-11-08T12:09:46.764Z,16.78
2022-11-08T12:12:26.872Z,16.50
2022-11-08T12:14:58.403Z,16.92
2022-11-08T12:17:49.284Z,16.85
2022-11-08T12:20:34.553Z,17.36
2022-11-08T12:23:11.386Z,17.04
2022-11-08T12:25:43.512Z,16.89
2022-11-08T12:28:29.092Z,17.15
2022-11-08T12:31:00.291Z,17.35
2022-11-08T12:33:37.267Z,17.38
2022-11-08T12:36:14.188Z,16.75
2022-11-08T12:39:02.337Z,17.31
2022-11-08T12:41:34.631Z,17.35
2022-11-08T12:44:16.762Z,17.25
2022-11-08T12:46:50.763Z,17.66
2022-11-08T12:49:30.643Z,17.55
2022-11-08T12:52:12.449Z,17.62
2022-11-08T12:54:42.325Z,17.49
2022-11-08T12:57:12.924Z,17.09
2022-11-08T12:59:43.610Z,17.14
2022-11-08T13:02:17.649Z,16.91
2022-11-08T13:04:52.832Z,16.51
2022-11-08T13:07:25.819Z,16.71
2022-11-08T13:09:57.854Z,16.66
2022-11-08T13:12:34.317Z,17.11
2022-11-08T13:15:02.880Z,16.96
2022-11-08T13:17:31.485Z,17.19
2022-11-08T13:20:05.763Z,17.32
2022-11-08T13:23:01.117Z,16.65
2022-11-08T13:25:36.737Z,16.97
2022-11-08T13:28:37.543Z,16.67
2022-11-08T13:31:14.313Z,17.26
2022-11-08T13:33:46.609Z,16.75
2022-11-08T13:36:23.629Z,16.87
2022-11-08T13:38:58.711Z,16.95
2022-11-08T13:41:26.863Z,17.04
2022-11-08T13:43:55.943Z,16.64
2022-11-08T13:46:46.738Z,17.00
2022-11-08T13:49:22.591Z,16.78
2022-11-08T13:51:52.525Z,16.65
2022-11-08T13:54:51.764Z,16.78
2022-11-08T13:57:59.344Z,16.56
2022-11-08T14:00:43.195Z,16.79
2022-11-08T14:03:44.148Z,16.77
2022-11-08T14:06:17.600Z,16.49
2022-11-08T14:08:50.115Z,16.36
2022-11-08T14:11:37.950Z,16.10
2022-11-08T14:14:27.916Z,16.95
2022-11-08T14:17:08.325Z,16.47
2022-11-08T14:19:38.100Z,16.81
2022-11-08T14:22:13.939Z,16.62
2022-11-08T14:24:41.758Z,16.57
2022-11-08T14:27:12.896Z,16.77
2022-11-08T14:29:42.145Z,16.66
2022-11-08T14:32:17.963Z,16.70
2022-11-08T14:34:45.768Z,16.45
2022-11-08T14:37:21.449Z,16.33
2022-11-08T14:39:49.305Z,16.58
2022-11-08T14:42:22.043Z,16.54
2022-11-08T14:44:53.657Z,16.30
2022-11-08T14:47:24.846Z,16.37
2022-11-08T14:49:52.496Z,16.49
2022-11-08T14:52:24.441Z,16.58
2022-11-08T14:55:01.229Z,16.48
2022-11-08T14:57:30.906Z,16.34
2022-11-08T15:00:01.892Z,16.30
2022-11-08T15:02:29.668Z,16.15
2022-11-08T15:04:57.324Z,16.30
2022-11-08T15:07:25.513Z,16.20
2022-11-08T15:09:53.712Z,16.08
2022-11-08T15:12:23.459Z,16.13
2022-11-08T15:14:54.620Z,16.39
2022-11-08T15:17:38.597Z,16.17
2022-11-08T15:20:19.672Z,16.18
2022-11-08T15:22:47.945Z,15.74
2022-11-08T15:25:25.725Z,15.99
2022-11-08T15:27:55.488Z,15.98
2022-11-08T15:30:24.597Z,16.02
2022-11-08T15:32:53.597Z,15.69
2022-11-08T15:35:24.772Z,16.01
2022-11-08T15:37:52.873Z,16.00
2022-11-08T15:40:21.973Z,15.79
2022-11-08T15:42:51.273Z,15.77
2022-11-08T15:45:26.047Z,15.72
2022-11-08T15:48:01.626Z,15.77
2022-11-08T15:50:31.030Z,15.79
2022-11-08T15:53:00.018Z,15.71
2022-11-08T15:55:30.576Z,15.51
2022-11-08T15:57:58.845Z,15.34
2022-11-08T16:00:28.181Z,15.51
2022-11-08T16:02:57.360Z,15.39
2022-11-08T16:05:26.376Z,15.17
2022-11-08T16:07:54.583Z,15.40
2022-11-08T16:10:26.873Z,15.50
2022-11-08T16:12:54.517Z,15.53
2022-11-08T16:15:24.643Z,15.38
2022-11-08T16:17:52.605Z,15.46
2022-11-08T16:20:26.928Z,15.64
2022-11-08T16:22:54.780Z,15.60
2022-11-08T16:25:22.717Z,15.65
2022-11-08T16:27:53.421Z,15.58
2022-11-08T16:30:21.487Z,15.63
2022-11-08T16:32:49.449Z,15.71
2022-11-08T16:35:17.738Z,15.62
2022-11-08T16:37:47.069Z,15.66
2022-11-08T16:40:19.225Z,15.51
2022-11-08T16:42:47.886Z,15.62
2022-11-08T16:45:16.787Z,15.84
2022-11-08T16:47:47.131Z,15.55
2022-11-08T16:50:17.158Z,15.52
2022-11-08T16:52:46.324Z,15.42
2022-11-08T16:55:17.532Z,15.71
2022-11-08T16:57:45.981Z,15.69
2022-11-08T17:00:15.737Z,15.90
2022-11-08T17:02:46.232Z,15.63
2022-11-08T17:05:18.196Z,15.39
2022-11-08T17:07:47.413Z,15.34
2022-11-08T17:10:17.299Z,15.22
2022-11-08T17:12:44.976Z,15.35
2022-11-08T17:15:13.664Z,15.19
2022-11-08T17:17:42.088Z,15.30
2022-11-08T17:20:12.523Z,14.99
2022-11-08T17:22:40.860Z,15.02
2022-11-08T17:25:11.641Z,14.96
2022-11-08T17:27:39.866Z,15.10
2022-11-08T17:30:09.096Z,14.95
2022-11-08T17:32:37.174Z,14.75
2022-11-08T17:35:06.009Z,14.97
2022-11-08T17:37:34.054Z,15.16
2022-11-08T17:40:02.765Z,14.87
2022-11-08T17:42:35.790Z,14.89
2022-11-08T17:45:07.297Z,14.86
2022-11-08T17:47:34.947Z,14.86
2022-11-08T17:50:02.991Z,14.81
2022-11-08T17:52:30.664Z,14.80
2022-11-08T17:54:58.363Z,14.81
2022-11-08T17:57:26.076Z,14.62
2022-11-08T17:59:55.073Z,14.67
2022-11-08T18:02:22.765Z,14.83
2022-11-08T18:04:50.460Z,14.96
2022-11-08T18:07:18.169Z,14.68
2022-11-08T18:09:45.875Z,15.01
2022-11-08T18:12:13.522Z,15.00
2022-11-08T18:14:41.205Z,15.14
2022-11-08T18:17:10.193Z,14.87
2022-11-08T18:19:37.944Z,14.78
2022-11-08T18:22:05.637Z,14.92
2022-11-08T18:24:33.309Z,14.91
2022-11-08T18:27:00.949Z,14.98
2022-11-08T18:29:28.604Z,14.95
2022-11-08T18:31:56.224Z,14.84
2022-11-08T18:34:25.381Z,14.88
2022-11-08T18:36:53.009Z,15.24
2022-11-08T18:39:20.675Z,14.91
2022-11-08T18:41:48.780Z,14.78
2022-11-08T18:44:16.408Z,14.95
2022-11-08T18:46:44.143Z,15.03
2022-11-08T18:49:11.936Z,14.88
2022-11-08T18:51:40.958Z,14.81
2022-11-08T18:54:08.623Z,14.83
2022-11-08T18:56:36.296Z,15.01
2022-11-08T18:59:04.039Z,14.88
2022-11-08T19:01:31.710Z,14.86
2022-11-08T19:03:59.433Z,14.86
2022-11-08T19:06:27.418Z,14.93
2022-11-08T19:08:57.512Z,14.79
2022-11-08T19:11:25.189Z,15.07
2022-11-08T19:13:52.882Z,15.15
2022-11-08T19:16:21.957Z,15.21
2022-11-08T19:18:50.199Z,15.18
2022-11-08T19:21:19.396Z,15.09
2022-11-08T19:23:47.490Z,15.07
2022-11-08T19:26:18.243Z,14.98
2022-11-08T19:28:46.876Z,14.99
2022-11-08T19:31:15.383Z,15.05
2022-11-08T19:33:43.091Z,15.19
2022-11-08T19:36:13.981Z,15.63
2022-11-08T19:38:42.309Z,16.04
2022-11-08T19:41:11.380Z,15.78
2022-11-08T19:43:41.631Z,15.84
2022-11-08T19:46:11.803Z,16.03
2022-11-08T19:48:40.836Z,16.03
2022-11-08T19:51:12.697Z,15.82
2022-11-08T19:53:40.652Z,15.99
2022-11-08T19:56:10.728Z,16.51
2022-11-08T19:58:40.497Z,16.43
2022-11-08T20:01:09.009Z,16.46
2022-11-08T20:03:36.934Z,16.14
2022-11-08T20:06:05.364Z,16.01
2022-11-08T20:08:33.069Z,16.08
2022-11-08T20:11:00.959Z,16.02
2022-11-08T20:13:28.628Z,16.17
2022-11-08T20:16:09.489Z,15.89
2022-11-08T20:18:37.172Z,15.96
2022-11-08T20:21:05.666Z,16.14
2022-11-08T20:23:33.305Z,16.18
2022-11-08T20:26:01.938Z,15.92
2022-11-08T20:28:29.866Z,15.94
2022-11-08T20:31:03.570Z,16.03
2022-11-08T20:33:33.977Z,15.74
2022-11-08T20:36:03.873Z,14.91
2022-11-08T20:38:31.737Z,14.86
2022-11-08T20:40:59.921Z,14.72
2022-11-08T20:43:27.807Z,14.80
2022-11-08T20:45:55.473Z,14.83
2022-11-08T20:48:28.563Z,14.88
2022-11-08T20:50:57.999Z,14.81
2022-11-08T20:53:25.841Z,14.78
2022-11-08T20:55:57.686Z,14.76
2022-11-08T20:58:26.563Z,14.51
2022-11-08T21:00:58.766Z,14.82
2022-11-08T21:03:28.910Z,14.72
2022-11-08T21:05:58.416Z,14.86
2022-11-08T21:08:58.539Z,14.92
2022-11-08T21:11:14.867Z,15.13
2022-11-08T21:13:44.496Z,15.03
2022-11-08T21:16:29.400Z,14.87
2022-11-08T21:18:59.474Z,15.18
2022-11-08T21:21:27.550Z,15.09
2022-11-08T21:23:55.303Z,14.98
2022-11-08T21:26:23.630Z,15.04
2022-11-08T21:28:52.115Z,15.30
2022-11-08T21:31:20.030Z,15.30
2022-11-08T21:33:47.764Z,15.11
2022-11-08T21:36:18.346Z,15.34
2022-11-08T21:38:46.276Z,15.36
2022-11-08T21:41:13.975Z,15.43
2022-11-08T21:43:43.964Z,15.31
2022-11-08T21:46:16.171Z,15.55
2022-11-08T21:48:43.844Z,15.52
2022-11-08T21:51:11.513Z,15.88
2022-11-08T21:53:49.322Z,15.59
2022-11-08T21:56:21.767Z,16.00
2022-11-08T21:58:49.432Z,15.88
2022-11-08T22:01:17.637Z,15.81
2022-11-08T22:03:45.437Z,15.87
2022-11-08T22:06:13.090Z,15.69
2022-11-08T22:08:42.073Z,15.93
2022-11-08T22:11:09.781Z,15.90
2022-11-08T22:13:37.442Z,15.83
2022-11-08T22:16:05.811Z,16.11
2022-11-08T22:19:03.113Z,15.94
2022-11-08T22:21:39.814Z,15.94
2022-11-08T22:24:11.179Z,15.72
2022-11-08T22:26:38.905Z,15.91
2022-11-08T22:29:06.941Z,15.80
2022-11-08T22:31:34.777Z,15.99
2022-11-08T22:34:02.592Z,15.92
2022-11-08T22:36:30.233Z,16.02
2022-11-08T22:38:58.074Z,15.71
2022-11-08T22:41:27.118Z,15.99
2022-11-08T22:43:55.084Z,15.36
2022-11-08T22:46:23.006Z,15.56
2022-11-08T22:48:50.879Z,15.70
2022-11-08T22:51:18.644Z,15.83
2022-11-08T22:53:46.273Z,15.69
2022-11-08T22:56:14.062Z,15.85
2022-11-08T22:58:43.230Z,15.96
2022-11-08T23:01:12.576Z,15.68
2022-11-08T23:03:41.529Z,15.83
2022-11-08T23:06:10.316Z,15.36
2022-11-08T23:08:37.975Z,15.06
2022-11-08T23:11:19.642Z,15.37
2022-11-08T23:14:05.909Z,15.31
2022-11-08T23:16:37.073Z,15.41
2022-11-08T23:19:24.710Z,15.37
2022-11-08T23:22:10.000Z,15.03
2022-11-08T23:24:37.702Z,15.20
2022-11-08T23:27:23.339Z,15.18
2022-11-08T23:30:10.006Z,15.02
2022-11-08T23:32:37.785Z,14.80
2022-11-08T23:35:05.990Z,15.06
2022-11-08T23:37:33.661Z,15.18
2022-11-08T23:40:18.962Z,15.09
2022-11-08T23:43:04.420Z,15.23
2022-11-08T23:45:33.438Z,15.23
2022-11-08T23:48:01.368Z,15.27
2022-11-08T23:50:29.011Z,14.83
2022-11-08T23:52:56.629Z,14.94
2022-11-08T23:55:24.348Z,14.89
2022-11-08T23:57:52.039Z,14.83
